createdAt,value
2022-11-24T00:02:55.720Z,3.70
2022-11-24T00:06:07.636Z,4.25
2022-11-24T00:09:11.432Z,3.97
2022-11-24T00:12:14.635Z,4.47
2022-11-24T00:15:17.733Z,4.28
2022-11-24T00:18:21.004Z,3.80
2022-11-24T00:21:25.709Z,3.30
2022-11-24T00:24:28.859Z,3.78
2022-11-24T00:27:31.941Z,4.10
2022-11-24T00:30:37.257Z,4.35
2022-11-24T00:33:40.735Z,4.10
2022-11-24T00:36:44.142Z,4.00
2022-11-24T00:39:47.316Z,4.40
2022-11-24T00:42:50.484Z,4.18
2022-11-24T00:45:53.698Z,4.05
2022-11-24T00:48:57.615Z,4.17
2022-11-24T00:52:00.875Z,4.60
2022-11-24T00:55:04.244Z,4.70
2022-11-24T00:58:07.433Z,4.35
2022-11-24T01:01:16.311Z,4.63
2022-11-24T01:04:19.556Z,4.72
2022-11-24T01:07:22.790Z,4.60
2022-11-24T01:10:26.066Z,5.20
2022-11-24T01:13:29.328Z,5.68
2022-11-24T01:16:34.864Z,5.00
2022-11-24T01:19:38.108Z,5.28
2022-11-24T01:22:44.112Z,5.55
2022-11-24T01:25:47.259Z,6.10
2022-11-24T01:28:55.154Z,5.80
2022-11-24T01:31:58.324Z,5.43
2022-11-24T01:35:01.824Z,6.45
2022-11-24T01:38:04.978Z,6.57
2022-11-24T01:41:16.978Z,6.50
2022-11-24T01:44:29.050Z,7.15
2022-11-24T01:47:35.243Z,6.40
2022-11-24T01:50:41.641Z,7.30
2022-11-24T01:53:51.221Z,7.15
2022-11-24T01:56:57.898Z,7.07
2022-11-24T02:00:07.469Z,8.10
2022-11-24T02:03:27.763Z,8.45
2022-11-24T02:06:33.251Z,8.57
2022-11-24T02:09:56.080Z,9.45
2022-11-24T02:13:00.679Z,9.30
2022-11-24T02:16:05.277Z,9.40
2022-11-24T02:19:22.322Z,9.65
2022-11-24T02:22:46.784Z,9.82
2022-11-24T02:26:18.256Z,10.35
2022-11-24T02:29:21.693Z,9.15
2022-11-24T02:32:25.009Z,9.93
2022-11-24T02:35:28.635Z,9.65
2022-11-24T02:38:33.784Z,9.07
2022-11-24T02:41:37.684Z,8.95
2022-11-24T02:44:48.148Z,9.40
2022-11-24T02:47:51.215Z,8.40
2022-11-24T02:50:55.345Z,8.30
2022-11-24T02:53:58.461Z,9.30
2022-11-24T02:57:01.599Z,8.82
2022-11-24T03:00:05.430Z,9.40
2022-11-24T03:03:08.934Z,9.40
2022-11-24T03:06:14.681Z,9.85
2022-11-24T03:09:20.296Z,9.18
2022-11-24T03:12:23.583Z,9.55
2022-11-24T03:15:26.798Z,8.93
2022-11-24T03:18:29.927Z,8.40
2022-11-24T03:21:33.320Z,8.95
2022-11-24T03:24:36.665Z,9.52
2022-11-24T03:27:40.004Z,8.57
2022-11-24T03:30:43.275Z,9.02
2022-11-24T03:33:46.517Z,9.13
2022-11-24T03:36:49.721Z,8.43
2022-11-24T03:39:52.901Z,9.02
2022-11-24T03:42:56.023Z,8.93
2022-11-24T03:45:59.258Z,9.50
2022-11-24T03:49:02.507Z,9.07
2022-11-24T03:52:08.196Z,9.02
2022-11-24T03:55:11.566Z,8.98
2022-11-24T03:58:14.735Z,8.82
2022-11-24T04:01:18.463Z,8.77
2022-11-24T04:04:21.702Z,8.80
2022-11-24T04:07:24.850Z,7.68
2022-11-24T04:10:28.658Z,8.35
2022-11-24T04:13:31.854Z,8.18
2022-11-24T04:16:35.060Z,8.50
2022-11-24T04:19:38.243Z,8.30
2022-11-24T04:22:41.604Z,8.23
2022-11-24T04:25:44.823Z,7.72
2022-11-24T04:28:48.194Z,9.27
2022-11-24T04:31:51.468Z,9.73
2022-11-24T04:34:54.731Z,10.25
2022-11-24T04:38:01.672Z,10.13
2022-11-24T04:41:05.731Z,9.70
2022-11-24T04:44:08.919Z,10.45
2022-11-24T04:47:18.317Z,11.47
2022-11-24T04:50:21.545Z,11.43
2022-11-24T04:53:24.675Z,12.02
2022-11-24T04:56:27.761Z,12.82
2022-11-24T04:59:31.049Z,11.30
2022-11-24T05:02:34.215Z,11.80
2022-11-24T05:05:37.499Z,12.18
2022-11-24T05:08:40.705Z,11.93
2022-11-24T05:11:44.531Z,12.32
2022-11-24T05:14:47.635Z,11.97
2022-11-24T05:17:50.840Z,11.80
2022-11-24T05:20:54.122Z,12.68
2022-11-24T05:23:57.351Z,13.30
2022-11-24T05:27:00.550Z,13.63
2022-11-24T05:30:04.997Z,14.52
2022-11-24T05:33:12.197Z,15.60
2022-11-24T05:36:34.168Z,14.73
2022-11-24T05:39:37.945Z,14.88
2022-11-24T05:42:46.548Z,15.03
2022-11-24T05:45:51.068Z,15.60
2022-11-24T05:48:54.495Z,16.25
2022-11-24T05:51:58.345Z,15.55
2022-11-24T05:55:01.751Z,16.20
2022-11-24T05:58:07.931Z,16.35
2022-11-24T06:01:11.235Z,15.93
2022-11-24T06:04:14.436Z,13.25
2022-11-24T06:07:17.950Z,18.70
2022-11-24T06:10:22.618Z,17.48
2022-11-24T06:13:25.972Z,13.90
2022-11-24T06:16:29.320Z,16.65
2022-11-24T06:19:34.748Z,13.65
2022-11-24T06:22:41.026Z,16.55
2022-11-24T06:25:47.376Z,15.45
2022-11-24T06:28:55.582Z,18.15
2022-11-24T06:31:58.986Z,17.77
2022-11-24T06:35:02.398Z,17.00
2022-11-24T06:38:05.905Z,16.77
2022-11-24T06:41:14.747Z,12.43
2022-11-24T06:44:18.257Z,18.63
2022-11-24T06:47:21.615Z,17.35
2022-11-24T06:50:29.232Z,18.02
2022-11-24T06:53:38.293Z,18.50
2022-11-24T06:56:41.710Z,19.30
2022-11-24T06:59:51.082Z,17.90
2022-11-24T07:02:55.990Z,18.27
2022-11-24T07:05:59.821Z,17.95
2022-11-24T07:09:05.908Z,18.30
2022-11-24T07:12:09.336Z,17.35
2022-11-24T07:15:14.373Z,17.52
2022-11-24T07:18:17.694Z,18.02
2022-11-24T07:21:22.885Z,17.33
2022-11-24T07:24:27.337Z,16.98
2022-11-24T07:27:30.751Z,17.60
2022-11-24T07:30:34.003Z,16.77
2022-11-24T07:33:37.574Z,17.15
2022-11-24T07:36:41.124Z,15.10
2022-11-24T07:39:44.531Z,15.85
2022-11-24T07:42:47.945Z,17.27
2022-11-24T07:45:54.450Z,16.15
2022-11-24T07:48:57.857Z,17.20
2022-11-24T07:52:01.372Z,16.73
2022-11-24T07:55:05.701Z,16.43
2022-11-24T07:58:08.879Z,16.88
2022-11-24T08:01:17.257Z,16.10
2022-11-24T08:04:20.914Z,16.65
2022-11-24T08:07:24.592Z,15.50
2022-11-24T08:10:28.593Z,16.47
2022-11-24T08:13:31.772Z,16.00
2022-11-24T08:16:35.125Z,17.42
2022-11-24T08:19:41.386Z,17.45
2022-11-24T08:22:44.978Z,16.98
2022-11-24T08:25:51.700Z,18.07
2022-11-24T08:29:01.040Z,17.98
2022-11-24T08:32:08.030Z,17.05
2022-11-24T08:35:14.237Z,18.60
2022-11-24T08:38:17.756Z,18.85
2022-11-24T08:41:21.126Z,17.57
2022-11-24T08:44:33.575Z,17.45
2022-11-24T08:47:37.553Z,18.50
2022-11-24T08:50:59.645Z,19.00
2022-11-24T08:54:03.503Z,17.60
2022-11-24T08:57:06.899Z,17.23
2022-11-24T09:00:11.324Z,16.85
2022-11-24T09:03:15.027Z,16.35
2022-11-24T09:06:24.907Z,17.03
2022-11-24T09:09:28.341Z,16.73
2022-11-24T09:12:33.888Z,14.90
2022-11-24T09:15:42.591Z,15.13
2022-11-24T09:18:46.562Z,14.30
2022-11-24T09:21:50.157Z,14.98
2022-11-24T09:24:53.658Z,12.45
2022-11-24T09:27:57.503Z,13.65
2022-11-24T09:31:06.311Z,11.32
2022-11-24T09:34:13.556Z,11.45
2022-11-24T09:37:17.604Z,12.75
2022-11-24T09:40:22.741Z,10.52
2022-11-24T09:43:38.093Z,10.25
2022-11-24T09:46:53.816Z,9.43
2022-11-24T09:50:11.452Z,9.18
2022-11-24T09:53:38.897Z,8.90
2022-11-24T09:56:42.990Z,9.10
2022-11-24T09:59:46.235Z,8.33
2022-11-24T10:02:50.197Z,7.50
2022-11-24T10:05:53.972Z,7.60
2022-11-24T10:09:18.866Z,6.78
2022-11-24T10:12:30.430Z,7.32
2022-11-24T10:15:58.606Z,6.82
2022-11-24T10:19:22.035Z,7.97
2022-11-24T10:22:56.095Z,6.60
2022-11-24T10:26:01.008Z,6.88
2022-11-24T10:29:34.159Z,7.33
2022-11-24T10:32:45.282Z,7.05
2022-11-24T10:36:00.712Z,6.93
2022-11-24T10:39:13.628Z,8.05
2022-11-24T10:42:28.698Z,8.20
2022-11-24T10:45:33.091Z,7.82
2022-11-24T10:48:49.927Z,7.78
2022-11-24T10:52:07.153Z,8.45
2022-11-24T10:55:11.179Z,7.93
2022-11-24T10:58:17.648Z,8.20
2022-11-24T11:01:29.503Z,8.45
2022-11-24T11:04:35.439Z,9.40
2022-11-24T11:07:41.340Z,9.43
2022-11-24T11:10:46.486Z,9.70
2022-11-24T11:14:01.703Z,8.90
2022-11-24T11:17:37.218Z,10.50
2022-11-24T11:20:40.576Z,11.27
2022-11-24T11:23:46.321Z,10.40
2022-11-24T11:27:04.500Z,11.10
2022-11-24T11:34:05.518Z,10.82
2022-11-24T11:37:14.533Z,11.57
2022-11-24T11:40:24.574Z,10.77
2022-11-24T11:43:37.881Z,10.20
2022-11-24T11:46:43.818Z,9.75
2022-11-24T11:49:50.079Z,10.07
2022-11-24T11:53:14.304Z,9.70
2022-11-24T11:56:35.034Z,12.18
2022-11-24T11:59:44.669Z,9.93
2022-11-24T12:02:59.568Z,8.65
2022-11-24T12:06:20.910Z,9.05
2022-11-24T12:10:07.381Z,8.65
2022-11-24T12:13:37.965Z,8.32
2022-11-24T12:17:07.965Z,8.07
2022-11-24T12:20:20.445Z,7.70
2022-11-24T12:24:09.094Z,8.18
2022-11-24T12:28:04.792Z,7.40
2022-11-24T12:31:31.657Z,8.07
2022-11-24T12:34:59.242Z,7.43
2022-11-24T12:38:23.577Z,6.75
2022-11-24T12:41:49.167Z,6.50
2022-11-24T12:44:58.312Z,6.55
2022-11-24T12:48:04.853Z,6.57
2022-11-24T12:51:22.873Z,5.77
2022-11-24T12:54:29.120Z,6.38
2022-11-24T12:57:41.348Z,6.38
2022-11-24T13:01:22.410Z,5.93
2022-11-24T13:04:28.871Z,5.97
2022-11-24T13:07:46.131Z,4.83
2022-11-24T13:10:58.051Z,5.75
2022-11-24T13:14:14.798Z,5.70
2022-11-24T13:17:52.413Z,5.57
2022-11-24T13:21:01.287Z,5.32
2022-11-24T13:24:33.944Z,5.10
2022-11-24T13:27:45.239Z,5.28
2022-11-24T13:30:52.012Z,5.22
2022-11-24T13:33:55.636Z,4.78
2022-11-24T13:37:31.149Z,5.50
2022-11-24T13:40:23.091Z,4.83
2022-11-24T13:43:26.545Z,4.90
2022-11-24T13:47:07.220Z,4.90
2022-11-24T13:50:24.221Z,4.43
2022-11-24T13:53:45.388Z,4.97
2022-11-24T13:56:48.585Z,4.87
2022-11-24T13:59:51.842Z,4.55
2022-11-24T14:03:06.781Z,4.68
2022-11-24T14:06:24.052Z,4.93
2022-11-24T14:09:36.029Z,4.90
2022-11-24T14:12:39.297Z,3.90
2022-11-24T14:15:58.333Z,4.55
2022-11-24T14:19:10.949Z,3.80
2022-11-24T14:22:39.510Z,5.90
2022-11-24T14:25:49.433Z,3.97
2022-11-24T14:28:53.861Z,4.30
2022-11-24T14:32:00.952Z,4.13
2022-11-24T14:35:24.958Z,4.25
2022-11-24T14:38:28.468Z,4.30
2022-11-24T14:41:33.677Z,4.70
2022-11-24T14:44:54.220Z,4.30
2022-11-24T14:47:57.661Z,4.05
2022-11-24T14:51:26.561Z,4.30
2022-11-24T14:54:31.294Z,4.70
2022-11-24T14:57:36.458Z,4.83
2022-11-24T15:00:39.871Z,4.78
2022-11-24T15:03:43.218Z,4.80
2022-11-24T15:06:48.782Z,4.63
2022-11-24T15:10:00.669Z,5.50
2022-11-24T15:13:23.953Z,5.10
2022-11-24T15:16:29.136Z,5.35
2022-11-24T15:19:36.154Z,5.55
2022-11-24T15:22:42.602Z,5.05
2022-11-24T15:25:45.765Z,5.28
2022-11-24T15:28:49.407Z,5.00
2022-11-24T15:31:53.232Z,4.60
2022-11-24T15:34:56.607Z,4.40
2022-11-24T15:38:00.024Z,5.00
2022-11-24T15:41:14.001Z,4.85
2022-11-24T15:44:17.165Z,4.67
2022-11-24T15:47:20.354Z,7.18
2022-11-24T15:50:23.697Z,4.60
2022-11-24T15:54:01.388Z,5.00
2022-11-24T15:57:04.778Z,5.88
2022-11-24T16:00:10.249Z,5.90
2022-11-24T16:03:45.847Z,5.05
2022-11-24T16:06:38.738Z,5.68
2022-11-24T16:09:42.029Z,5.88
2022-11-24T16:12:50.182Z,7.15
2022-11-24T16:15:53.701Z,5.87
2022-11-24T16:18:57.133Z,5.75
2022-11-24T16:22:00.547Z,5.97
2022-11-24T16:25:04.372Z,5.07
2022-11-24T16:28:07.873Z,5.18
2022-11-24T16:31:12.671Z,9.30
2022-11-24T16:34:16.221Z,4.68
2022-11-24T16:37:21.738Z,4.43
2022-11-24T16:40:25.311Z,4.32
2022-11-24T16:43:29.560Z,4.30
2022-11-24T16:46:33.113Z,3.90
2022-11-24T16:49:36.554Z,3.63
2022-11-24T16:52:40.177Z,4.07
2022-11-24T16:55:43.335Z,4.25
2022-11-24T16:58:46.809Z,3.80
2022-11-24T17:01:50.872Z,3.43
2022-11-24T17:04:54.221Z,3.80
2022-11-24T17:07:58.203Z,3.70
2022-11-24T17:11:22.118Z,3.72
2022-11-24T17:14:25.873Z,3.28
2022-11-24T17:17:29.053Z,3.78
2022-11-24T17:20:32.538Z,3.53
2022-11-24T17:23:36.015Z,3.85
2022-11-24T17:26:39.337Z,3.55
2022-11-24T17:29:42.496Z,4.00
2022-11-24T17:32:45.963Z,3.97
2022-11-24T17:35:49.448Z,4.65
2022-11-24T17:38:52.956Z,4.30
2022-11-24T17:41:56.697Z,3.90
2022-11-24T17:45:00.177Z,4.50
2022-11-24T17:48:03.547Z,4.20
2022-11-24T17:51:10.685Z,4.53
2022-11-24T17:57:37.147Z,4.40
2022-11-24T18:00:40.624Z,4.55
2022-11-24T18:03:45.860Z,4.38
2022-11-24T18:06:52.471Z,4.83
2022-11-24T18:09:56.172Z,4.28
2022-11-24T18:12:59.407Z,4.38
2022-11-24T18:16:05.210Z,4.55
2022-11-24T18:19:11.035Z,4.33
2022-11-24T18:22:14.836Z,4.65
2022-11-24T18:25:18.179Z,4.40
2022-11-24T18:28:22.341Z,4.15
2022-11-24T18:31:26.404Z,4.73
2022-11-24T18:34:33.381Z,4.40
2022-11-24T18:37:43.318Z,4.18
2022-11-24T18:40:51.963Z,4.43
2022-11-24T18:43:55.367Z,4.43
2022-11-24T18:46:59.284Z,3.85
2022-11-24T18:50:02.961Z,4.35
2022-11-24T18:53:07.893Z,4.07
2022-11-24T18:56:18.192Z,3.97
2022-11-24T18:59:21.604Z,4.00
2022-11-24T19:02:25.255Z,3.97
2022-11-24T19:05:28.825Z,4.75
2022-11-24T19:08:32.588Z,4.20
2022-11-24T19:11:39.007Z,4.30
2022-11-24T19:14:42.133Z,5.45
2022-11-24T19:17:47.397Z,5.43
2022-11-24T19:20:51.100Z,4.50
2022-11-24T19:23:56.587Z,4.18
2022-11-24T19:27:03.231Z,4.50
2022-11-24T19:30:07.424Z,3.95
2022-11-24T19:33:11.172Z,4.53
2022-11-24T19:36:18.991Z,5.03
2022-11-24T19:39:23.016Z,5.00
2022-11-24T19:42:26.481Z,5.03
2022-11-24T19:45:30.551Z,4.77
2022-11-24T19:48:43.271Z,4.82
2022-11-24T19:51:48.883Z,4.93
2022-11-24T19:54:52.447Z,4.80
2022-11-24T19:57:55.971Z,4.53
2022-11-24T20:01:17.864Z,5.68
2022-11-24T20:04:21.512Z,4.93
2022-11-24T20:07:25.041Z,4.82
2022-11-24T20:10:28.575Z,4.87
2022-11-24T20:13:33.699Z,4.63
2022-11-24T20:16:37.419Z,5.18
2022-11-24T20:19:42.892Z,4.70
2022-11-24T20:22:46.617Z,4.50
2022-11-24T20:25:50.037Z,5.25
2022-11-24T20:28:55.489Z,5.18
2022-11-24T20:31:59.053Z,5.00
2022-11-24T20:35:02.938Z,5.50
2022-11-24T20:38:10.095Z,5.82
2022-11-24T20:41:19.880Z,5.70
2022-11-24T20:44:24.957Z,5.30
2022-11-24T20:47:30.803Z,5.87
2022-11-24T20:50:38.016Z,5.90
2022-11-24T20:53:42.280Z,6.07
2022-11-24T20:56:46.847Z,5.78
2022-11-24T20:59:52.421Z,5.90
2022-11-24T21:02:57.685Z,6.40
2022-11-24T21:06:01.470Z,5.80
2022-11-24T21:09:06.150Z,5.60
2022-11-24T21:12:09.525Z,5.50
2022-11-24T21:15:12.721Z,5.88
2022-11-24T21:18:16.814Z,6.35
2022-11-24T21:21:22.272Z,5.67
2022-11-24T21:24:25.742Z,5.82
2022-11-24T21:27:29.366Z,6.10
2022-11-24T21:30:33.059Z,6.50
2022-11-24T21:33:42.108Z,6.17
2022-11-24T21:36:45.453Z,6.60
2022-11-24T21:39:48.724Z,7.50
2022-11-24T21:42:51.940Z,7.00
2022-11-24T21:45:55.395Z,6.00
2022-11-24T21:48:58.715Z,7.53
2022-11-24T21:52:01.921Z,6.72
2022-11-24T21:55:05.364Z,7.20
2022-11-24T21:58:08.635Z,7.50
2022-11-24T22:01:13.181Z,7.82
2022-11-24T22:04:16.651Z,7.18
2022-11-24T22:07:19.939Z,6.50
2022-11-24T22:10:24.728Z,6.82
2022-11-24T22:13:27.962Z,7.15
2022-11-24T22:16:31.526Z,7.03
2022-11-24T22:19:34.704Z,7.30
2022-11-24T22:22:37.933Z,8.02
2022-11-24T22:25:41.173Z,7.93
2022-11-24T22:28:45.081Z,7.60
2022-11-24T22:31:54.821Z,7.68
2022-11-24T22:34:57.959Z,7.63
2022-11-24T22:38:01.128Z,8.30
2022-11-24T22:41:12.708Z,8.73
2022-11-24T22:44:15.819Z,7.82
2022-11-24T22:47:19.052Z,7.90
2022-11-24T22:50:22.434Z,7.50
2022-11-24T22:53:25.582Z,8.00
2022-11-24T22:56:32.194Z,7.78
2022-11-24T22:59:35.759Z,7.75
2022-11-24T23:02:38.990Z,8.43
2022-11-24T23:05:42.243Z,7.90
2022-11-24T23:08:45.576Z,8.30
2022-11-24T23:11:49.638Z,8.07
2022-11-24T23:14:52.807Z,8.23
2022-11-24T23:17:55.992Z,8.48
2022-11-24T23:21:05.322Z,8.45
2022-11-24T23:24:10.148Z,7.78
2022-11-24T23:27:13.279Z,7.63
2022-11-24T23:30:17.104Z,8.65
2022-11-24T23:33:20.387Z,8.15
2022-11-24T23:36:23.673Z,8.52
2022-11-24T23:39:26.997Z,8.53
2022-11-24T23:42:30.173Z,8.70
2022-11-24T23:45:33.489Z,9.25
2022-11-24T23:48:37.808Z,8.63
2022-11-24T23:51:42.105Z,8.73
2022-11-24T23:54:45.464Z,8.85
2022-11-24T23:57:48.683Z,8.88
